Time;durP1;ratioP1;P1;durP2;ratioP2;P2;SDS_P1;SDS_P2;PMS_P1;PMS_P2;Temp;Humidity;BMP_temperature;BMP_pressure;BME280_temperature;BME280_humidity;BME280_pressure;Samples;Min_cycle;Max_cycle;Signal;HPM_P1;HPM_P2
2021/10/24 00:01:19;;;;;;;17.45;11.43;;;2.70;99.90;;;;;;5053894;28;20086;-61
2021/10/24 00:03:46;;;;;;;16.15;10.63;;;2.70;99.90;;;;;;5053710;28;20478;-61
2021/10/24 00:06:11;;;;;;;14.88;10.35;;;2.60;99.90;;;;;;5053086;28;20100;-60
2021/10/24 00:08:37;;;;;;;20.02;9.88;;;2.60;99.90;;;;;;5053496;28;20067;-58
2021/10/24 00:11:03;;;;;;;16.85;9.80;;;2.50;99.90;;;;;;5053642;28;20025;-60
2021/10/24 00:13:29;;;;;;;20.75;10.60;;;2.50;99.90;;;;;;5053540;28;20476;-60
2021/10/24 00:15:56;;;;;;;14.15;9.73;;;2.50;99.90;;;;;;5053321;28;20025;-61
2021/10/24 00:18:23;;;;;;;16.70;9.50;;;2.60;99.90;;;;;;5052994;28;20028;-58
2021/10/24 00:20:50;;;;;;;16.77;10.13;;;2.40;99.90;;;;;;5052621;28;20021;-57
2021/10/24 00:23:16;;;;;;;21.52;9.68;;;2.30;99.90;;;;;;5053236;28;20414;-59
2021/10/24 00:25:42;;;;;;;22.95;11.30;;;2.40;99.90;;;;;;5052550;28;20104;-59
2021/10/24 00:28:08;;;;;;;21.25;10.32;;;2.40;99.90;;;;;;5053186;28;20435;-59
2021/10/24 00:30:34;;;;;;;17.85;9.85;;;2.40;99.90;;;;;;5053269;28;20021;-58
2021/10/24 00:33:05;;;;;;;13.48;9.30;;;2.30;99.90;;;;;;5053413;28;20021;-60
2021/10/24 00:35:32;;;;;;;15.02;9.88;;;2.40;99.90;;;;;;5053003;28;20159;-56
2021/10/24 00:37:58;;;;;;;18.38;11.35;;;2.40;99.90;;;;;;5053309;28;20021;-58
2021/10/24 00:40:24;;;;;;;15.82;9.82;;;2.30;99.90;;;;;;5053026;28;20535;-58
2021/10/24 00:42:53;;;;;;;13.30;8.27;;;2.30;99.90;;;;;;5052953;28;20059;-58
2021/10/24 00:45:20;;;;;;;15.52;8.95;;;2.20;99.90;;;;;;5052060;28;20111;-55
2021/10/24 00:47:45;;;;;;;16.75;9.77;;;2.30;99.90;;;;;;5052987;28;20102;-57
2021/10/24 00:50:12;;;;;;;16.58;9.15;;;2.20;99.90;;;;;;5052658;28;20072;-59
2021/10/24 00:52:39;;;;;;;15.65;9.65;;;2.20;99.90;;;;;;5052691;28;20104;-59
2021/10/24 00:55:05;;;;;;;15.00;10.07;;;2.10;99.90;;;;;;5052031;28;20379;-59
2021/10/24 00:57:32;;;;;;;18.83;9.88;;;2.10;99.90;;;;;;5052567;28;20030;-59
2021/10/24 00:59:58;;;;;;;17.77;8.85;;;2.20;99.90;;;;;;5052309;28;20112;-59
2021/10/24 01:02:24;;;;;;;23.10;10.23;;;2.10;99.90;;;;;;5052594;28;20143;-58
2021/10/24 01:04:50;;;;;;;15.43;10.20;;;2.10;99.90;;;;;;5051896;28;20090;-59
2021/10/24 01:07:17;;;;;;;16.95;10.50;;;2.10;99.90;;;;;;5052420;28;20021;-60
2021/10/24 01:09:45;;;;;;;17.15;9.98;;;2.00;99.90;;;;;;5052368;28;20130;-58
2021/10/24 01:12:10;;;;;;;15.90;9.55;;;2.10;99.90;;;;;;5052404;28;20028;-59
2021/10/24 01:14:36;;;;;;;19.63;10.48;;;2.10;99.90;;;;;;5051555;28;20980;-59
2021/10/24 01:17:02;;;;;;;18.52;10.30;;;2.00;99.90;;;;;;5052242;28;20044;-57
2021/10/24 01:19:27;;;;;;;16.02;9.48;;;1.90;99.90;;;;;;5051711;28;20108;-58
2021/10/24 01:21:53;;;;;;;14.48;10.05;;;1.90;99.90;;;;;;5052144;28;20021;-58
2021/10/24 01:24:19;;;;;;;18.42;10.05;;;1.90;99.90;;;;;;5051639;28;20071;-58
2021/10/24 01:26:45;;;;;;;17.77;10.75;;;1.90;99.90;;;;;;5051935;28;20457;-57
2021/10/24 01:29:11;;;;;;;19.38;10.90;;;1.90;99.90;;;;;;5051901;28;20403;-56
2021/10/24 01:31:37;;;;;;;20.23;10.50;;;1.90;99.90;;;;;;5051351;28;20090;-58
2021/10/24 01:34:04;;;;;;;20.92;11.60;;;1.90;99.90;;;;;;5051559;28;20021;-54
2021/10/24 01:36:31;;;;;;;16.95;10.13;;;1.80;99.90;;;;;;5051224;28;20043;-57
2021/10/24 01:38:57;;;;;;;18.60;10.30;;;1.80;99.90;;;;;;5051974;28;20033;-55
2021/10/24 01:41:24;;;;;;;19.20;10.90;;;1.70;99.90;;;;;;5051783;28;20074;-59
2021/10/24 01:43:50;;;;;;;16.85;10.00;;;1.70;99.90;;;;;;5051537;28;20474;-59
2021/10/24 01:46:17;;;;;;;15.57;9.52;;;1.70;99.90;;;;;;5051042;28;20056;-59
2021/10/24 01:48:43;;;;;;;15.82;9.75;;;1.60;99.90;;;;;;5051611;28;20065;-56
2021/10/24 01:51:10;;;;;;;18.38;9.85;;;1.60;99.90;;;;;;5051850;28;20029;-60
2021/10/24 01:53:40;;;;;;;18.35;9.77;;;1.60;99.90;;;;;;5051627;28;20070;-60
2021/10/24 01:56:06;;;;;;;19.02;9.38;;;1.60;99.90;;;;;;5051037;28;20028;-57
2021/10/24 01:58:33;;;;;;;19.65;8.43;;;1.60;99.90;;;;;;5033653;28;20036;-58
2021/10/24 02:00:59;;;;;;;14.88;9.10;;;1.50;99.90;;;;;;5051903;28;20070;-60
2021/10/24 02:03:25;;;;;;;16.45;10.18;;;1.60;99.90;;;;;;5051430;28;20102;-59
2021/10/24 02:05:50;;;;;;;16.08;9.65;;;1.50;99.90;;;;;;5050883;28;20028;-61
2021/10/24 02:08:17;;;;;;;19.98;9.48;;;1.50;99.90;;;;;;5051576;28;20032;-59
2021/10/24 02:10:43;;;;;;;13.57;9.43;;;1.50;99.90;;;;;;5051472;28;20096;-60
2021/10/24 02:13:09;;;;;;;17.38;10.02;;;1.50;99.90;;;;;;5051342;28;20036;-62
2021/10/24 02:15:36;;;;;;;15.77;10.23;;;1.50;99.90;;;;;;5050730;28;20437;-59
2021/10/24 02:18:03;;;;;;;20.27;11.05;;;1.50;99.90;;;;;;5051566;28;20399;-57
2021/10/24 02:20:29;;;;;;;17.23;10.25;;;1.50;99.90;;;;;;5033430;28;20095;-60
2021/10/24 02:22:55;;;;;;;16.13;9.52;;;1.40;99.90;;;;;;5051212;28;20449;-61
2021/10/24 02:25:21;;;;;;;17.33;9.43;;;1.30;99.90;;;;;;5050996;28;20029;-60
2021/10/24 02:27:48;;;;;;;14.00;9.68;;;1.30;99.90;;;;;;5049994;28;20044;-62
2021/10/24 02:30:16;;;;;;;14.77;9.52;;;1.30;99.90;;;;;;5051454;28;20094;-62
2021/10/24 02:32:43;;;;;;;12.65;8.85;;;1.30;99.90;;;;;;5051329;28;20025;-61
2021/10/24 02:35:10;;;;;;;17.20;9.25;;;1.30;99.90;;;;;;5060651;28;20017;-60
2021/10/24 02:37:36;;;;;;;15.68;9.02;;;1.20;99.90;;;;;;5057253;28;20036;-59
2021/10/24 02:40:03;;;;;;;14.98;9.95;;;1.20;99.90;;;;;;5051047;28;20028;-59
2021/10/24 02:42:29;;;;;;;13.90;9.18;;;1.20;99.90;;;;;;5051206;28;20021;-56
2021/10/24 02:44:54;;;;;;;18.77;11.02;;;1.30;99.90;;;;;;5053654;28;20025;-59
2021/10/24 02:47:21;;;;;;;20.40;10.60;;;1.30;99.90;;;;;;5055244;28;20021;-59
2021/10/24 02:49:46;;;;;;;15.70;10.23;;;1.20;99.90;;;;;;5054952;28;20040;-60
2021/10/24 02:52:13;;;;;;;18.05;10.88;;;1.20;99.90;;;;;;5055172;28;20025;-58
2021/10/24 02:54:38;;;;;;;18.85;11.80;;;1.10;99.90;;;;;;5054060;28;20044;-60
2021/10/24 02:57:05;;;;;;;14.80;9.98;;;1.20;99.90;;;;;;5054874;28;20069;-58
2021/10/24 02:59:31;;;;;;;22.63;12.05;;;1.20;99.90;;;;;;5054806;28;20025;-60
2021/10/24 03:01:57;;;;;;;17.67;11.15;;;1.10;99.90;;;;;;5054562;28;20036;-60
2021/10/24 03:04:23;;;;;;;27.38;12.68;;;1.10;99.90;;;;;;5054279;28;20395;-61
2021/10/24 03:06:48;;;;;;;20.40;11.07;;;1.10;99.90;;;;;;5054629;28;20435;-60
2021/10/24 03:09:14;;;;;;;22.55;11.40;;;1.10;99.90;;;;;;5054228;28;20035;-60
2021/10/24 03:11:40;;;;;;;19.95;12.13;;;1.10;99.90;;;;;;5054683;28;20480;-59
2021/10/24 03:14:06;;;;;;;19.98;11.70;;;1.10;99.90;;;;;;5054388;28;20033;-60
2021/10/24 03:16:34;;;;;;;16.90;10.98;;;1.10;99.90;;;;;;5053799;28;20025;-60
2021/10/24 03:19:03;;;;;;;16.80;10.73;;;1.10;99.90;;;;;;5054417;28;20021;-59
2021/10/24 03:21:30;;;;;;;19.70;11.10;;;1.10;99.90;;;;;;5054491;28;20017;-59
2021/10/24 03:23:57;;;;;;;16.77;11.57;;;1.00;99.90;;;;;;5054179;28;20096;-60
2021/10/24 03:26:23;;;;;;;24.02;12.00;;;1.00;99.90;;;;;;5053735;28;20086;-60
2021/10/24 03:28:48;;;;;;;21.92;12.75;;;1.00;99.90;;;;;;5054460;28;20471;-61
2021/10/24 03:31:14;;;;;;;22.80;10.98;;;1.00;99.90;;;;;;5054343;28;20503;-61
2021/10/24 03:33:40;;;;;;;20.02;11.60;;;0.90;99.90;;;;;;5054243;28;20071;-59
2021/10/24 03:36:06;;;;;;;14.77;10.23;;;0.90;99.90;;;;;;5053462;28;20107;-59
2021/10/24 03:38:32;;;;;;;21.92;11.63;;;0.90;99.90;;;;;;5053854;28;20096;-60
2021/10/24 03:40:57;;;;;;;17.73;10.55;;;1.00;99.90;;;;;;5054064;28;20495;-60
2021/10/24 03:43:23;;;;;;;18.65;11.73;;;1.00;99.90;;;;;;5054059;28;20025;-60
2021/10/24 03:45:49;;;;;;;16.17;11.32;;;1.00;99.90;;;;;;5053170;28;20029;-60
2021/10/24 03:48:15;;;;;;;18.58;10.85;;;0.90;99.90;;;;;;5053808;28;20025;-60
2021/10/24 03:50:41;;;;;;;19.25;12.20;;;0.90;99.90;;;;;;5054102;28;20029;-59
2021/10/24 03:53:07;;;;;;;20.90;10.75;;;0.90;99.90;;;;;;5054037;28;20025;-59
2021/10/24 03:55:32;;;;;;;18.65;11.48;;;0.90;99.90;;;;;;5052233;28;20061;-58
2021/10/24 03:57:58;;;;;;;19.65;11.25;;;0.90;99.90;;;;;;5053869;28;20025;-59
2021/10/24 04:00:23;;;;;;;15.63;10.70;;;0.90;99.90;;;;;;5053842;28;20025;-58
2021/10/24 04:02:57;;;;;;;13.60;10.00;;;0.80;99.90;;;;;;5053714;28;20025;-59
2021/10/24 04:05:25;;;;;;;16.85;10.27;;;0.80;99.90;;;;;;5052985;28;20040;-59
2021/10/24 04:07:51;;;;;;;17.58;10.07;;;0.80;99.90;;;;;;5053968;28;20446;-60
2021/10/24 04:10:19;;;;;;;17.77;10.60;;;0.80;99.90;;;;;;5053751;28;20745;-58
2021/10/24 04:12:45;;;;;;;14.45;10.50;;;0.80;99.90;;;;;;5053411;28;20037;-60
2021/10/24 04:15:12;;;;;;;16.67;10.77;;;0.80;99.90;;;;;;5052796;28;20029;-59
2021/10/24 04:17:38;;;;;;;21.17;10.35;;;0.80;99.90;;;;;;5053398;28;20029;-60
2021/10/24 04:20:08;;;;;;;18.35;10.55;;;0.80;99.90;;;;;;5053270;28;20032;-59
2021/10/24 04:22:38;;;;;;;19.58;11.07;;;0.80;99.90;;;;;;5053147;28;20047;-60
2021/10/24 04:25:06;;;;;;;20.75;10.43;;;0.80;99.90;;;;;;5052768;28;20155;-61
2021/10/24 04:27:32;;;;;;;14.07;10.27;;;0.70;99.90;;;;;;5053155;28;20033;-59
2021/10/24 04:29:59;;;;;;;15.27;10.25;;;0.70;99.90;;;;;;5053070;28;20021;-59
2021/10/24 04:32:24;;;;;;;13.40;9.05;;;0.60;99.90;;;;;;5053186;28;20368;-64
2021/10/24 04:34:50;;;;;;;14.32;10.05;;;0.60;99.90;;;;;;5052486;28;20035;-61
2021/10/24 04:37:16;;;;;;;15.27;10.23;;;0.60;99.90;;;;;;5053221;28;20591;-61
2021/10/24 04:39:42;;;;;;;18.27;9.85;;;0.50;99.90;;;;;;5052997;28;20025;-61
2021/10/24 04:42:08;;;;;;;22.15;10.43;;;0.50;99.90;;;;;;5053065;28;20036;-61
2021/10/24 04:44:34;;;;;;;18.60;11.30;;;0.60;99.90;;;;;;5052198;28;20029;-61
2021/10/24 04:46:59;;;;;;;18.30;10.45;;;0.60;99.90;;;;;;5052746;28;20017;-60
2021/10/24 04:49:25;;;;;;;19.05;11.07;;;0.50;99.90;;;;;;5053085;28;20033;-61
2021/10/24 04:51:51;;;;;;;18.50;11.18;;;0.60;99.90;;;;;;5053639;28;20025;-61
2021/10/24 04:54:16;;;;;;;18.40;11.43;;;0.60;99.90;;;;;;5052168;28;20086;-61
2021/10/24 04:56:42;;;;;;;21.65;10.68;;;0.60;99.90;;;;;;5052437;28;20025;-59
2021/10/24 04:59:07;;;;;;;22.17;11.27;;;0.50;99.90;;;;;;5052440;28;20110;-60
2021/10/24 05:01:33;;;;;;;21.40;10.63;;;0.60;99.90;;;;;;5052418;28;20092;-60
2021/10/24 05:03:59;;;;;;;13.48;10.18;;;0.60;99.90;;;;;;5052532;28;20060;-60
2021/10/24 05:06:24;;;;;;;20.38;11.07;;;0.60;99.90;;;;;;5051662;28;20021;-60
2021/10/24 05:08:50;;;;;;;21.33;10.65;;;0.60;99.90;;;;;;5052010;28;20028;-60
2021/10/24 05:11:16;;;;;;;15.90;10.90;;;0.70;99.90;;;;;;5052421;28;20100;-60
2021/10/24 05:13:41;;;;;;;16.25;10.40;;;0.60;99.90;;;;;;5052464;28;20029;-60
2021/10/24 05:16:07;;;;;;;17.20;10.98;;;0.60;99.90;;;;;;5051793;28;20091;-59
2021/10/24 05:18:33;;;;;;;16.63;9.75;;;0.60;99.90;;;;;;5052434;28;20043;-60
2021/10/24 05:20:59;;;;;;;17.15;10.40;;;0.50;99.90;;;;;;5052276;28;20017;-61
2021/10/24 05:23:24;;;;;;;19.92;10.13;;;0.50;99.90;;;;;;5052639;28;20035;-60
2021/10/24 05:25:50;;;;;;;15.82;9.88;;;0.40;99.90;;;;;;5052389;28;20052;-60
2021/10/24 05:28:16;;;;;;;15.25;9.88;;;0.40;99.90;;;;;;5052643;28;20021;-59
2021/10/24 05:30:42;;;;;;;17.63;9.40;;;0.40;99.90;;;;;;5052758;28;20086;-60
2021/10/24 05:33:08;;;;;;;15.52;9.88;;;0.40;99.90;;;;;;5051912;28;20036;-60
2021/10/24 05:35:34;;;;;;;16.70;10.07;;;0.40;99.90;;;;;;5051224;28;20552;-60
2021/10/24 05:38:00;;;;;;;19.38;9.93;;;0.50;99.90;;;;;;5051947;28;20029;-59
2021/10/24 05:40:25;;;;;;;13.80;9.25;;;0.50;99.90;;;;;;5052256;28;20033;-59
2021/10/24 05:42:51;;;;;;;15.98;9.70;;;0.40;99.90;;;;;;5052375;28;20021;-61
2021/10/24 05:45:17;;;;;;;16.65;9.52;;;0.40;99.90;;;;;;5051228;28;20118;-59
2021/10/24 05:47:42;;;;;;;21.13;9.57;;;0.50;99.90;;;;;;5052011;28;20029;-57
2021/10/24 05:50:09;;;;;;;14.75;9.60;;;0.50;99.90;;;;;;5051852;28;20838;-59
2021/10/24 05:52:34;;;;;;;19.02;10.75;;;0.50;99.90;;;;;;5052639;28;20072;-60
2021/10/24 05:55:00;;;;;;;16.98;11.90;;;0.40;99.90;;;;;;5052510;28;20032;-61
2021/10/24 05:57:25;;;;;;;19.30;10.88;;;0.30;99.90;;;;;;5052827;28;20029;-59
2021/10/24 05:59:51;;;;;;;17.33;11.13;;;0.30;99.90;;;;;;5052163;28;20021;-61
2021/10/24 06:02:17;;;;;;;21.95;10.75;;;0.30;99.90;;;;;;5051643;28;20115;-59
2021/10/24 06:04:42;;;;;;;20.73;11.60;;;0.40;99.90;;;;;;5051018;28;20037;-59
2021/10/24 06:07:09;;;;;;;17.60;10.88;;;0.40;99.90;;;;;;5051651;28;20021;-58
2021/10/24 06:10:01;;;;;;;18.65;11.48;;;0.30;99.90;;;;;;5051781;28;20056;-56
2021/10/24 06:15:02;;;;;;;16.65;11.07;;;0.40;99.90;;;;;;5050789;28;20029;-58
2021/10/24 06:17:29;;;;;;;18.48;10.93;;;0.40;99.90;;;;;;5051524;28;20071;-59
2021/10/24 06:19:55;;;;;;;16.67;9.98;;;0.40;99.90;;;;;;5054678;28;20024;-58
2021/10/24 06:22:20;;;;;;;12.63;8.75;;;0.40;99.90;;;;;;5055475;28;20116;-59
2021/10/24 06:24:46;;;;;;;18.17;10.70;;;0.40;99.90;;;;;;5054979;28;20064;-60
2021/10/24 06:27:12;;;;;;;25.08;12.90;;;0.40;99.90;;;;;;5055461;28;20032;-59
2021/10/24 06:29:37;;;;;;;21.05;12.77;;;0.50;99.90;;;;;;5055966;28;20440;-61
2021/10/24 06:32:04;;;;;;;22.05;13.15;;;0.60;99.90;;;;;;5056646;28;20675;-60
2021/10/24 06:34:29;;;;;;;19.38;12.48;;;0.50;99.90;;;;;;5055159;28;20103;-61
2021/10/24 06:36:56;;;;;;;17.55;11.80;;;0.50;99.90;;;;;;5055863;28;20061;-61
2021/10/24 06:39:22;;;;;;;13.95;10.02;;;0.40;99.90;;;;;;5055190;28;20032;-59
2021/10/24 06:41:47;;;;;;;21.00;10.82;;;0.40;99.90;;;;;;5055242;28;20033;-60
2021/10/24 06:44:13;;;;;;;15.05;10.38;;;0.40;99.90;;;;;;5055059;28;20025;-58
2021/10/24 06:46:39;;;;;;;16.25;10.13;;;0.50;99.90;;;;;;5054752;28;20437;-59
2021/10/24 06:49:05;;;;;;;19.48;10.88;;;0.40;99.90;;;;;;5037283;28;20487;-59
2021/10/24 06:51:30;;;;;;;24.33;10.93;;;0.50;99.90;;;;;;5055114;28;20039;-60
2021/10/24 06:53:56;;;;;;;17.02;10.73;;;0.50;99.90;;;;;;5055163;28;20078;-60
2021/10/24 06:56:22;;;;;;;19.35;12.18;;;0.50;99.90;;;;;;5054068;28;20023;-60
2021/10/24 06:58:47;;;;;;;21.75;11.57;;;0.50;99.90;;;;;;5054584;28;20096;-59
2021/10/24 07:01:13;;;;;;;38.13;28.42;;;0.60;99.90;;;;;;5054675;28;20487;-60
2021/10/24 07:03:39;;;;;;;30.75;19.10;;;0.70;99.90;;;;;;5054864;28;20017;-60
2021/10/24 07:06:04;;;;;;;19.75;11.98;;;0.90;99.90;;;;;;5054187;28;20017;-61
2021/10/24 07:08:30;;;;;;;22.52;14.45;;;0.90;99.90;;;;;;5055023;28;20025;-61
2021/10/24 07:10:56;;;;;;;22.70;14.35;;;1.00;99.90;;;;;;5054792;28;20025;-62
2021/10/24 07:13:21;;;;;;;22.02;13.43;;;1.00;99.90;;;;;;5054792;28;20021;-60
2021/10/24 07:15:47;;;;;;;26.65;17.08;;;1.00;99.90;;;;;;5053897;28;20099;-61
2021/10/24 07:18:13;;;;;;;40.90;26.63;;;1.30;99.90;;;;;;5054399;28;20384;-60
2021/10/24 07:20:38;;;;;;;28.55;17.67;;;1.30;99.90;;;;;;5054330;28;20032;-60
2021/10/24 07:23:04;;;;;;;19.50;10.90;;;1.40;99.90;;;;;;5054383;28;20029;-61
2021/10/24 07:25:30;;;;;;;16.23;10.57;;;1.50;99.90;;;;;;5054082;28;20013;-62
2021/10/24 07:27:55;;;;;;;15.75;10.63;;;1.60;99.90;;;;;;5054546;28;20074;-61
2021/10/24 07:30:21;;;;;;;17.17;11.48;;;1.70;99.90;;;;;;5055082;28;20368;-62
2021/10/24 07:32:48;;;;;;;15.82;10.00;;;1.80;99.90;;;;;;5054306;28;20029;-60
2021/10/24 07:35:14;;;;;;;16.70;9.98;;;2.10;99.90;;;;;;5054536;28;20028;-61
2021/10/24 07:37:40;;;;;;;12.40;10.15;;;2.10;99.90;;;;;;5055517;28;20021;-62
2021/10/24 07:40:08;;;;;;;19.20;9.27;;;2.20;99.90;;;;;;5054153;28;20112;-62
2021/10/24 07:42:35;;;;;;;11.32;8.63;;;2.50;99.90;;;;;;5054173;28;20057;-62
2021/10/24 07:45:01;;;;;;;11.32;7.68;;;3.70;99.90;;;;;;5053371;28;20026;-62
2021/10/24 07:47:30;;;;;;;9.15;6.70;;;6.40;99.90;;;;;;5053870;28;20025;-61
2021/10/24 07:50:08;;;;;;;9.38;6.10;;;8.90;99.90;;;;;;5053940;28;20029;-61
2021/10/24 07:52:34;;;;;;;9.45;5.50;;;10.80;99.90;;;;;;5053898;28;20482;-62
2021/10/24 07:55:00;;;;;;;7.45;5.93;;;11.60;99.90;;;;;;5053281;28;20102;-62
2021/10/24 07:57:25;;;;;;;6.35;5.20;;;12.10;99.90;;;;;;5053969;28;20067;-62
2021/10/24 07:59:51;;;;;;;9.82;5.50;;;13.10;98.70;;;;;;5053840;28;20487;-63
2021/10/24 08:02:20;;;;;;;6.60;5.70;;;13.90;96.80;;;;;;5053760;28;20017;-61
2021/10/24 08:04:49;;;;;;;8.80;5.28;;;14.40;94.70;;;;;;5053152;28;20021;-62
2021/10/24 08:07:16;;;;;;;7.63;5.22;;;14.30;93.90;;;;;;5053594;28;20593;-62
2021/10/24 08:09:43;;;;;;;10.55;7.57;;;15.30;93.60;;;;;;5053570;28;20104;-62
2021/10/24 08:12:09;;;;;;;6.70;5.30;;;15.30;92.40;;;;;;5053219;28;20479;-60
2021/10/24 08:14:36;;;;;;;9.75;5.43;;;15.50;91.40;;;;;;5053145;28;20036;-59
2021/10/24 08:17:05;;;;;;;6.70;5.55;;;15.50;90.50;;;;;;5053471;28;20037;-64
2021/10/24 08:19:31;;;;;;;7.25;5.45;;;15.10;91.60;;;;;;5052964;28;20025;-62
2021/10/24 08:21:58;;;;;;;11.48;5.88;;;14.90;92.30;;;;;;5053415;28;20382;-63
2021/10/24 08:24:24;;;;;;;6.32;5.20;;;14.20;93.20;;;;;;5053152;28;20032;-63
2021/10/24 08:26:50;;;;;;;6.13;5.40;;;14.50;92.80;;;;;;5052259;28;20071;-61
2021/10/24 08:29:16;;;;;;;7.25;5.55;;;15.50;91.80;;;;;;5065960;22;20040;-63
2021/10/24 08:31:48;;;;;;;8.02;5.93;;;15.50;90.90;;;;;;5053357;28;20017;-63
2021/10/24 08:34:13;;;;;;;9.60;5.40;;;15.10;91.70;;;;;;5052993;28;20021;-64
2021/10/24 08:36:39;;;;;;;9.77;5.93;;;15.00;91.80;;;;;;5052419;28;20029;-63
2021/10/24 08:39:05;;;;;;;8.43;6.13;;;14.80;92.20;;;;;;5052926;28;20470;-64
2021/10/24 08:41:30;;;;;;;5.45;4.75;;;14.30;94.10;;;;;;5052598;28;20151;-64
2021/10/24 08:43:59;;;;;;;9.18;5.72;;;14.40;93.60;;;;;;5053094;28;20025;-64
2021/10/24 08:46:25;;;;;;;7.50;5.40;;;15.60;92.00;;;;;;5052177;28;20077;-65
2021/10/24 08:48:51;;;;;;;8.90;4.90;;;17.00;90.10;;;;;;5052753;28;20112;-64
2021/10/24 08:51:18;;;;;;;8.35;4.90;;;17.70;88.10;;;;;;5053287;28;20025;-64
2021/10/24 08:53:47;;;;;;;6.38;5.63;;;17.60;87.70;;;;;;5052829;28;20036;-64
2021/10/24 08:56:22;;;;;;;5.63;4.93;;;17.50;87.60;;;;;;5052197;28;20082;-64
2021/10/24 08:58:48;;;;;;;6.40;4.85;;;18.40;85.20;;;;;;5052924;28;20033;-63
2021/10/24 09:01:15;;;;;;;7.68;5.57;;;18.50;82.90;;;;;;5053158;28;20437;-64
2021/10/24 09:04:11;;;;;;;6.95;5.32;;;18.50;85.40;;;;;;5052946;28;20021;-64
2021/10/24 09:07:01;;;;;;;8.57;5.90;;;18.20;85.80;;;;;;5052511;28;20025;-64
2021/10/24 09:09:28;;;;;;;8.18;5.28;;;19.00;84.30;;;;;;5044687;28;20039;-64
2021/10/24 09:12:04;;;;;;;8.07;5.50;;;18.60;85.90;;;;;;5052819;28;20055;-63
2021/10/24 09:14:49;;;;;;;8.60;5.50;;;17.70;85.00;;;;;;5051976;28;20490;-64
2021/10/24 09:17:23;;;;;;;6.63;4.90;;;16.50;88.50;;;;;;5052550;28;20032;-65
2021/10/24 09:20:00;;;;;;;8.15;5.80;;;16.00;91.80;;;;;;5052438;28;20025;-65
2021/10/24 09:22:27;;;;;;;7.55;5.28;;;15.50;91.60;;;;;;5052392;28;20017;-64
2021/10/24 09:25:14;;;;;;;8.98;5.80;;;15.40;91.70;;;;;;5052140;28;20399;-64
2021/10/24 09:27:48;;;;;;;10.48;5.72;;;13.70;94.30;;;;;;5052628;28;20029;-63
2021/10/24 09:30:36;;;;;;;7.63;5.63;;;14.10;95.30;;;;;;5052038;28;20041;-63
2021/10/24 09:33:04;;;;;;;7.90;5.55;;;14.70;93.50;;;;;;5052288;28;20021;-64
2021/10/24 09:35:37;;;;;;;7.15;5.10;;;15.60;91.60;;;;;;5051889;28;20025;-65
2021/10/24 09:38:12;;;;;;;7.47;5.43;;;17.20;90.30;;;;;;5052500;28;20033;-64
2021/10/24 09:40:46;;;;;;;10.15;6.63;;;17.50;90.80;;;;;;5052668;28;20494;-65
2021/10/24 09:43:26;;;;;;;7.20;5.55;;;18.40;87.40;;;;;;5052804;28;20021;-64
2021/10/24 09:45:58;;;;;;;10.95;5.03;;;18.10;86.30;;;;;;5051837;28;20052;-64
2021/10/24 09:48:26;;;;;;;6.00;5.10;;;18.20;87.10;;;;;;5052664;28;20159;-64
2021/10/24 09:51:00;;;;;;;10.00;5.38;;;17.80;88.50;;;;;;5052482;28;20021;-65
2021/10/24 09:53:35;;;;;;;9.30;5.28;;;18.10;86.90;;;;;;5051465;28;20078;-64
2021/10/24 09:56:08;;;;;;;7.35;5.53;;;17.70;86.40;;;;;;5051377;28;20044;-63
2021/10/24 09:58:36;;;;;;;7.20;5.45;;;16.30;90.70;;;;;;5052232;28;20379;-63
2021/10/24 10:01:04;;;;;;;7.07;5.35;;;16.90;90.20;;;;;;5052435;28;20021;-64
2021/10/24 10:03:31;;;;;;;9.18;5.97;;;16.30;90.90;;;;;;5052147;28;20096;-62
2021/10/24 10:05:57;;;;;;;8.15;5.53;;;17.00;89.40;;;;;;5051513;28;20029;-63
2021/10/24 10:08:23;;;;;;;7.50;4.93;;;17.50;87.80;;;;;;5052036;28;20031;-63
2021/10/24 10:10:53;;;;;;;6.78;5.10;;;17.80;88.70;;;;;;5051573;28;20393;-63
2021/10/24 10:13:22;;;;;;;8.45;5.00;;;18.10;86.50;;;;;;5051846;28;20036;-65
2021/10/24 10:15:50;;;;;;;4.95;4.18;;;18.30;85.80;;;;;;5051802;28;20125;-63
2021/10/24 10:18:17;;;;;;;8.77;5.03;;;18.60;86.40;;;;;;5052123;28;20029;-63
2021/10/24 10:20:53;;;;;;;7.95;4.47;;;18.50;85.10;;;;;;5052041;28;20029;-64
2021/10/24 10:23:43;;;;;;;4.53;4.13;;;18.40;86.70;;;;;;5052225;28;20028;-63
2021/10/24 10:26:41;;;;;;;4.45;4.05;;;18.50;88.40;;;;;;5051261;28;20084;-65
2021/10/24 10:29:09;;;;;;;4.60;3.92;;;17.90;88.10;;;;;;5051325;28;20402;-64
2021/10/24 10:31:36;;;;;;;9.25;4.28;;;18.40;85.00;;;;;;5051646;28;20033;-64
2021/10/24 10:34:08;;;;;;;5.68;4.32;;;18.00;87.60;;;;;;5053265;28;20017;-64
2021/10/24 10:36:49;;;;;;;4.13;3.50;;;18.70;87.70;;;;;;5050824;28;20017;-63
2021/10/24 10:39:44;;;;;;;8.10;4.93;;;18.80;82.80;;;;;;5051220;28;20491;-64
2021/10/24 10:42:28;;;;;;;5.82;4.38;;;19.10;86.20;;;;;;5038850;28;20029;-64
2021/10/24 10:45:35;;;;;;;7.68;4.78;;;18.00;86.20;;;;;;5050996;28;20028;-64
2021/10/24 10:48:27;;;;;;;6.50;4.50;;;18.50;87.00;;;;;;4989923;28;20389;-67
2021/10/24 10:50:57;;;;;;;5.20;4.65;;;18.80;86.70;;;;;;5051333;28;20048;-63
2021/10/24 10:53:32;;;;;;;6.55;4.68;;;20.10;85.10;;;;;;5051237;28;20051;-64
2021/10/24 10:56:05;;;;;;;5.75;4.13;;;19.80;82.00;;;;;;5050516;28;20469;-65
2021/10/24 10:58:45;;;;;;;4.22;3.75;;;20.10;83.60;;;;;;5051805;28;20453;-64
2021/10/24 11:01:32;;;;;;;5.55;3.78;;;20.30;82.80;;;;;;5051691;28;20037;-64
2021/10/24 11:04:07;;;;;;;9.48;3.63;;;20.30;82.00;;;;;;5051711;28;20033;-63
2021/10/24 11:06:38;;;;;;;5.15;4.20;;;19.90;82.30;;;;;;5054442;28;20057;-65
2021/10/24 11:09:43;;;;;;;4.28;3.88;;;21.20;80.20;;;;;;5055206;28;20032;-64
2021/10/24 11:12:28;;;;;;;4.40;3.55;;;20.30;80.50;;;;;;5055049;28;20040;-63
2021/10/24 11:15:07;;;;;;;7.28;3.58;;;21.00;78.10;;;;;;5054238;28;20025;-64
2021/10/24 11:17:34;;;;;;;3.50;3.05;;;21.30;79.70;;;;;;5055168;28;20029;-65
2021/10/24 11:20:21;;;;;;;4.43;3.90;;;20.60;80.30;;;;;;5054582;28;20029;-64
2021/10/24 11:22:53;;;;;;;5.50;3.17;;;21.50;77.00;;;;;;5054679;28;20112;-65
2021/10/24 11:25:30;;;;;;;4.85;2.70;;;21.70;78.40;;;;;;5054181;28;20368;-63
2021/10/24 11:28:05;;;;;;;3.85;3.30;;;21.60;76.60;;;;;;5055035;28;20033;-64
2021/10/24 11:30:30;;;;;;;3.55;3.20;;;22.30;75.90;;;;;;5054839;28;20040;-65
2021/10/24 11:32:56;;;;;;;5.18;3.47;;;22.70;74.00;;;;;;5055022;28;20092;-64
2021/10/24 11:35:22;;;;;;;10.38;3.22;;;22.50;75.30;;;;;;5054510;28;20025;-65
2021/10/24 11:37:50;;;;;;;3.60;3.10;;;23.60;73.90;;;;;;5054871;28;20029;-64
2021/10/24 11:40:21;;;;;;;8.02;3.70;;;24.10;71.80;;;;;;5054829;28;20547;-63
2021/10/24 11:43:06;;;;;;;3.67;3.20;;;24.20;70.60;;;;;;5054705;28;20430;-65
2021/10/24 11:45:33;;;;;;;3.80;3.25;;;24.00;69.00;;;;;;5053761;28;20394;-64
2021/10/24 11:48:07;;;;;;;6.28;3.53;;;23.70;70.50;;;;;;5054074;28;20132;-64
2021/10/24 11:50:38;;;;;;;3.50;3.10;;;23.00;72.80;;;;;;5054031;28;20106;-65
2021/10/24 11:53:04;;;;;;;4.70;3.20;;;23.70;71.00;;;;;;5053894;28;20025;-63
2021/10/24 11:55:29;;;;;;;3.40;3.08;;;24.20;68.20;;;;;;5053119;28;20494;-63
2021/10/24 12:00:49;;;;;;;3.92;3.15;;;23.20;68.40;;;;;;5053569;28;20035;-64
2021/10/24 12:03:28;;;;;;;4.53;3.58;;;22.80;70.00;;;;;;5053873;28;20445;-65
2021/10/24 12:05:54;;;;;;;4.50;3.47;;;23.90;68.50;;;;;;5052986;28;20420;-64
2021/10/24 12:08:39;;;;;;;3.92;3.53;;;25.10;66.90;;;;;;5053471;28;20021;-64
2021/10/24 12:11:06;;;;;;;5.18;3.63;;;23.80;68.40;;;;;;5053476;28;20103;-64
2021/10/24 12:13:34;;;;;;;5.07;3.72;;;24.40;67.50;;;;;;5053538;28;20105;-64
2021/10/24 12:16:00;;;;;;;3.83;3.53;;;25.10;67.20;;;;;;5052217;28;20025;-65
2021/10/24 12:18:28;;;;;;;3.75;3.45;;;24.00;67.00;;;;;;5053494;28;20497;-62
2021/10/24 12:20:58;;;;;;;4.22;3.75;;;24.40;64.40;;;;;;5053388;28;20478;-64
2021/10/24 12:23:34;;;;;;;4.18;3.78;;;23.90;67.30;;;;;;5053233;28;20021;-63
2021/10/24 12:26:05;;;;;;;6.35;3.72;;;24.80;67.10;;;;;;5052516;28;20028;-63
2021/10/24 12:28:43;;;;;;;5.82;4.30;;;25.10;65.30;;;;;;5053068;28;20462;-64
2021/10/24 12:31:16;;;;;;;4.47;4.03;;;25.50;65.20;;;;;;5053211;28;20048;-64
2021/10/24 12:33:44;;;;;;;5.07;4.38;;;25.50;64.20;;;;;;5052841;28;20514;-64
2021/10/24 12:36:31;;;;;;;4.20;3.80;;;25.60;64.30;;;;;;5052549;28;20033;-64
2021/10/24 12:38:59;;;;;;;4.70;3.50;;;25.50;63.30;;;;;;5056360;28;20048;-65
2021/10/24 12:41:44;;;;;;;4.93;4.40;;;25.50;63.80;;;;;;5058786;28;20025;-64
2021/10/24 12:44:11;;;;;;;4.88;4.30;;;24.80;65.00;;;;;;5052880;28;20535;-63
2021/10/24 12:46:39;;;;;;;6.20;3.90;;;25.50;64.00;;;;;;5053602;28;20048;-63
2021/10/24 12:49:18;;;;;;;4.28;3.88;;;24.60;64.50;;;;;;5052796;28;20025;-63
2021/10/24 12:51:49;;;;;;;5.28;4.18;;;24.90;65.50;;;;;;5052739;28;20094;-63
2021/10/24 12:54:31;;;;;;;5.07;3.95;;;25.30;63.90;;;;;;5052313;28;20033;-64
2021/10/24 12:56:58;;;;;;;5.60;4.07;;;25.50;64.20;;;;;;5052928;28;20033;-63